O John Clark Restricted Landing Area [CLOSED]

Jump to: basic info | weather | comments

Related pages: nearby airports | nearby navaids | notams | map

Basic information (top)

Codes: 7IL2
Location: lon 42.368401, lat -87.991699, elev 790 ft / 241 m msl
Status: closed

Weather (top)

Current conditions for Waukegan Regional Airport 6nm (12km) ENE (rec'd 2014/10/02 12:04Z):

KUGN 021204Z 13006KT 6SM BR BKN017 OVC065 17/14 A2986 RMK AO2 T01670144

Airport forecast for Kenosha Regional Airport 14nm (26km) NNE (rec'd 2014/10/02 12:45Z):

TAF KENW 021144Z 0212/0312 17008KT P6SM VCSH SCT025 BKN035 
     FM021600 17009KT 6SM BR SCT025 BKN040 
     FM022000 16008KT P6SM VCTS SCT020 BKN040CB 
     FM022300 12009KT 4SM -TSRA BR SCT006 OVC020CB 
     FM030300 15006KT 3/4SM -TSRA BR OVC005CB 
     FM030600 23011KT 3/4SM -SHRA BR VCTS OVC004CB 
      AMD NOT SKED

Latest comments (top)

No comments yet for O John Clark Restricted Landing Area

More... (top)

See also NOTAMs and nearby airports and navaids, or visit the O John Clark Restricted Landing Area page at the main OurAirports website..